Terminal Aerodrome Forecast
Issued by NWS

Home | Current Version | Previous Version | Text Only | Print | Product List | Glossary On
Versions: 1 2 3 4 5 6 7 8 9 10 11 12 13 14 15 16 17 18 19 20 21 22 23 24 25 26 27 28 29
000
FTUS43 KDVN 202346
TAFBRL
TAF
KBRL 202346Z 2100/2124 10004KT 1SM BR OVC002
      TEMPO 2100/2102 1/2SM FG OVC001
     FM210200 12004KT 1/2SM FG VV001
     FM210800 16008KT 2SM BR OVC004
     FM211200 19009KT 4SM BR OVC010=

USA.gov is the U.S. government's official web portal to all federal, state and local government web resources and services.